CheckWX is a tool to help pilots better visualize weather data.  It is not intended as a substitute for an official pre-flight weather briefing.

12:51:23 UTC

LSZC TAF
Buochs Airport
Buochs, Switzerland
TAF LSZC 221125Z 2212/2221 06006KT CAVOK

Mar-22@
12:00 UTC

Mar-22 @ 12:00 UTC

Mar-22@
21:00 UTC

Mar-22 @ 21:00 UTC

TAF LSZC 221125Z 2212/2221 06006KT CAVOK
Wind
  • 060° at 6 KTS
Conditions
No significant weather
Cloud Levels
  • No significant clouds